createdAt,value
2018-04-28T00:00:00.253Z,13.80
2018-04-28T00:02:27.798Z,13.70
2018-04-28T00:04:56.325Z,13.80
2018-04-28T00:07:24.369Z,13.80
2018-04-28T00:09:52.140Z,13.80
2018-04-28T00:12:20.918Z,13.80
2018-04-28T00:14:48.679Z,13.80
2018-04-28T00:17:16.538Z,13.90
2018-04-28T00:19:45.166Z,13.90
2018-04-28T00:22:19.503Z,13.90
2018-04-28T00:24:56.171Z,13.70
2018-04-28T00:27:28.383Z,13.70
2018-04-28T00:32:49.626Z,14.10
2018-04-28T00:35:17.381Z,13.70
2018-04-28T00:37:50.721Z,13.70
2018-04-28T00:40:19.298Z,13.70
2018-04-28T00:42:48.930Z,13.70
2018-04-28T00:45:19.261Z,13.50
2018-04-28T00:47:50.300Z,13.40
2018-04-28T00:50:31.430Z,13.40
2018-04-28T00:52:59.273Z,13.40
2018-04-28T00:55:32.508Z,13.40
2018-04-28T00:58:06.125Z,13.40
2018-04-28T01:01:06.636Z,13.40
2018-04-28T01:03:36.049Z,13.40
2018-04-28T01:06:04.153Z,13.30
2018-04-28T01:08:32.745Z,13.30
2018-04-28T01:11:03.364Z,13.30
2018-04-28T01:13:47.632Z,13.20
2018-04-28T01:16:16.136Z,13.20
2018-04-28T01:18:52.497Z,13.10
2018-04-28T01:21:21.188Z,13.10
2018-04-28T01:23:48.998Z,13.10
2018-04-28T01:26:22.053Z,13.20
2018-04-28T01:29:09.671Z,13.20
2018-04-28T01:31:38.287Z,13.10
2018-04-28T01:34:10.317Z,13.00
2018-04-28T01:36:44.965Z,13.00
2018-04-28T01:39:16.395Z,12.90
2018-04-28T01:41:53.895Z,12.90
2018-04-28T01:44:25.297Z,12.80
2018-04-28T01:50:15.915Z,12.70
2018-04-28T01:52:43.689Z,12.70
2018-04-28T01:55:16.073Z,12.80
2018-04-28T02:00:48.175Z,12.80
2018-04-28T02:03:17.715Z,12.70
2018-04-28T02:06:04.220Z,12.70
2018-04-28T02:08:31.985Z,12.70
2018-04-28T02:11:00.698Z,12.60
2018-04-28T02:16:33.089Z,12.60
2018-04-28T02:19:21.413Z,12.50
2018-04-28T02:22:05.725Z,12.50
2018-04-28T02:24:34.507Z,12.50
2018-04-28T02:27:10.228Z,12.50
2018-04-28T02:29:39.928Z,12.40
2018-04-28T02:32:15.409Z,12.40
2018-04-28T02:34:44.114Z,12.30
2018-04-28T02:37:22.634Z,12.20
2018-04-28T02:40:06.693Z,12.20
2018-04-28T02:46:03.525Z,12.20
2018-04-28T02:48:49.522Z,12.20
2018-04-28T02:51:23.113Z,12.30
2018-04-28T02:53:54.517Z,12.30
2018-04-28T02:56:27.152Z,12.30
2018-04-28T02:59:00.886Z,12.30
2018-04-28T03:01:37.361Z,12.30
2018-04-28T03:04:07.086Z,12.30
2018-04-28T03:06:36.643Z,12.20
2018-04-28T03:09:05.254Z,12.20
2018-04-28T03:11:35.278Z,12.10
2018-04-28T03:14:03.034Z,12.10
2018-04-28T03:19:28.362Z,12.00
2018-04-28T03:21:58.876Z,12.00
2018-04-28T03:24:52.954Z,12.00
2018-04-28T03:27:24.962Z,12.10
2018-04-28T03:29:53.495Z,12.10
2018-04-28T03:32:33.770Z,12.10
2018-04-28T03:35:16.442Z,12.10
2018-04-28T03:37:53.880Z,12.20
2018-04-28T03:40:23.252Z,12.10
2018-04-28T03:42:53.707Z,12.20
2018-04-28T03:45:22.421Z,12.20
2018-04-28T03:48:10.719Z,12.10
2018-04-28T03:53:44.162Z,12.00
2018-04-28T03:56:13.500Z,12.00
2018-04-28T03:58:53.352Z,12.00
2018-04-28T04:01:33.102Z,12.00
2018-04-28T04:04:11.493Z,12.00
2018-04-28T04:06:45.053Z,12.00
2018-04-28T04:09:23.351Z,11.90
2018-04-28T04:12:06.735Z,11.80
2018-04-28T04:14:57.337Z,11.70
2018-04-28T04:17:31.198Z,11.70
2018-04-28T04:22:57.861Z,11.70
2018-04-28T04:28:38.521Z,11.60
2018-04-28T04:31:24.719Z,11.40
2018-04-28T04:33:54.422Z,11.40
2018-04-28T04:36:32.971Z,11.40
2018-04-28T04:42:13.285Z,11.30
2018-04-28T04:44:44.493Z,11.30
2018-04-28T04:50:29.463Z,13.70
2018-04-28T04:52:59.564Z,11.50
2018-04-28T04:55:35.093Z,11.30
2018-04-28T05:01:17.062Z,11.40
2018-04-28T05:04:00.299Z,11.50
2018-04-28T05:09:37.890Z,11.60
2018-04-28T05:12:11.644Z,11.60
2018-04-28T05:14:52.041Z,11.60
2018-04-28T05:17:31.585Z,11.60
2018-04-28T05:23:17.181Z,11.60
2018-04-28T05:25:53.656Z,11.60
2018-04-28T05:28:33.430Z,11.60
2018-04-28T05:34:28.578Z,11.70
2018-04-28T05:40:19.664Z,11.70
2018-04-28T05:42:59.488Z,11.80
2018-04-28T05:45:37.215Z,11.70
2018-04-28T05:48:25.747Z,11.70
2018-04-28T05:51:08.562Z,11.70
2018-04-28T05:53:59.398Z,11.80
2018-04-28T05:59:41.433Z,13.60
2018-04-28T06:02:23.869Z,11.90
2018-04-28T06:05:03.418Z,11.90
2018-04-28T06:07:47.953Z,12.00
2018-04-28T06:13:25.089Z,12.00
2018-04-28T06:16:05.667Z,12.00
2018-04-28T06:18:52.320Z,12.00
2018-04-28T06:21:20.749Z,12.20
2018-04-28T06:23:50.173Z,12.20
2018-04-28T06:26:17.948Z,12.20
2018-04-28T06:28:46.467Z,12.20
2018-04-28T06:31:14.242Z,12.20
2018-04-28T06:33:43.049Z,12.20
2018-04-28T06:36:11.156Z,12.30
2018-04-28T06:38:39.678Z,12.30
2018-04-28T06:41:07.512Z,12.20
2018-04-28T06:43:37.046Z,12.30
2018-04-28T06:46:04.817Z,12.30
2018-04-28T06:48:32.579Z,12.30
2018-04-28T06:51:01.102Z,12.30
2018-04-28T06:53:32.112Z,12.40
2018-04-28T06:55:59.913Z,12.40
2018-04-28T06:58:28.513Z,12.40
2018-04-28T07:00:56.432Z,12.40
2018-04-28T07:03:25.154Z,12.40
2018-04-28T07:05:53.672Z,12.30
2018-04-28T07:08:21.431Z,12.30
2018-04-28T07:10:49.597Z,12.30
2018-04-28T07:13:17.496Z,12.30
2018-04-28T07:15:45.258Z,12.30
2018-04-28T07:18:13.048Z,12.30
2018-04-28T07:20:41.574Z,12.50
2018-04-28T07:23:09.329Z,12.50
2018-04-28T07:25:37.105Z,12.50
2018-04-28T07:28:04.872Z,12.50
2018-04-28T07:30:32.965Z,12.50
2018-04-28T07:33:00.759Z,12.50
2018-04-28T07:35:29.505Z,12.40
2018-04-28T07:37:57.254Z,12.40
2018-04-28T07:40:25.030Z,12.40
2018-04-28T07:42:53.138Z,12.40
2018-04-28T07:45:21.680Z,12.40
2018-04-28T07:47:49.476Z,12.40
2018-04-28T07:50:18.001Z,12.60
2018-04-28T07:52:47.478Z,12.60
2018-04-28T07:55:16.680Z,12.60
2018-04-28T07:57:45.111Z,12.60
2018-04-28T08:00:12.939Z,12.70
2018-04-28T08:02:40.832Z,12.70
2018-04-28T08:05:08.589Z,12.80
2018-04-28T08:07:36.364Z,12.90
2018-04-28T08:10:04.632Z,13.00
2018-04-28T08:12:32.390Z,13.20
2018-04-28T08:15:01.066Z,13.20
2018-04-28T08:17:28.813Z,13.20
2018-04-28T08:19:56.589Z,13.10
2018-04-28T08:22:24.336Z,13.10
2018-04-28T08:24:52.113Z,13.10
2018-04-28T08:27:19.872Z,13.10
2018-04-28T08:29:47.415Z,13.00
2018-04-28T08:32:15.179Z,13.00
2018-04-28T08:34:42.965Z,13.10
2018-04-28T08:37:10.532Z,13.20
2018-04-28T08:39:39.230Z,13.20
2018-04-28T08:42:07.009Z,13.20
2018-04-28T08:44:35.248Z,13.20
2018-04-28T08:47:03.673Z,13.20
2018-04-28T08:49:32.867Z,13.30
2018-04-28T08:52:02.176Z,13.40
2018-04-28T08:54:30.701Z,13.50
2018-04-28T08:56:58.820Z,13.50
2018-04-28T08:59:39.290Z,13.50
2018-04-28T09:02:08.500Z,13.50
2018-04-28T09:04:36.924Z,13.50
2018-04-28T09:10:08.349Z,13.40
2018-04-28T09:12:36.790Z,13.30
2018-04-28T09:15:05.985Z,13.30
2018-04-28T09:17:34.418Z,13.30
2018-04-28T09:20:02.861Z,13.30
2018-04-28T09:22:32.788Z,13.40
2018-04-28T09:25:02.477Z,13.40
2018-04-28T09:27:32.545Z,13.50
2018-04-28T09:30:01.939Z,13.50
2018-04-28T09:32:31.610Z,13.50
2018-04-28T09:35:00.823Z,13.60
2018-04-28T09:37:29.566Z,13.60
2018-04-28T09:39:58.032Z,13.80
2018-04-28T09:42:26.647Z,13.90
2018-04-28T09:44:55.832Z,13.80
2018-04-28T09:47:24.272Z,13.80
2018-04-28T09:49:52.704Z,13.90
2018-04-28T09:52:21.909Z,13.80
2018-04-28T09:54:51.108Z,13.90
2018-04-28T09:57:19.553Z,13.80
2018-04-28T09:59:48.003Z,13.80
2018-04-28T10:02:18.149Z,13.80
2018-04-28T10:04:46.571Z,13.80
2018-04-28T10:07:14.992Z,13.80
2018-04-28T10:09:43.442Z,13.80
2018-04-28T10:12:11.860Z,13.80
2018-04-28T10:14:40.297Z,13.80
2018-04-28T10:17:08.723Z,13.90
2018-04-28T10:19:37.154Z,13.90
2018-04-28T10:22:05.607Z,13.90
2018-04-28T10:24:34.796Z,14.00
2018-04-28T10:27:04.002Z,14.10
2018-04-28T10:29:33.193Z,14.30
2018-04-28T10:32:02.777Z,14.60
2018-04-28T10:34:31.195Z,14.60
2018-04-28T10:36:59.699Z,14.70
2018-04-28T10:39:28.121Z,14.80
2018-04-28T10:41:56.564Z,14.90
2018-04-28T10:44:24.989Z,14.90
2018-04-28T10:46:54.201Z,14.90
2018-04-28T10:49:22.637Z,14.80
2018-04-28T10:51:51.077Z,14.80
2018-04-28T10:54:19.528Z,15.10
2018-04-28T10:56:48.733Z,15.40
2018-04-28T10:59:17.924Z,15.30
2018-04-28T11:01:47.221Z,15.20
2018-04-28T11:04:16.420Z,15.20
2018-04-28T11:06:45.609Z,15.20
2018-04-28T11:09:14.843Z,15.20
2018-04-28T11:11:43.282Z,15.20
2018-04-28T11:14:12.509Z,15.50
2018-04-28T11:16:40.951Z,15.50
2018-04-28T11:19:09.150Z,15.70
2018-04-28T11:21:37.364Z,15.60
2018-04-28T11:24:06.570Z,15.70
2018-04-28T11:26:34.993Z,15.70
2018-04-28T11:29:04.196Z,15.90
2018-04-28T11:31:32.621Z,15.90
2018-04-28T11:34:01.610Z,16.00
2018-04-28T11:36:30.053Z,16.20
2018-04-28T11:38:58.470Z,16.30
2018-04-28T11:41:26.909Z,16.30
2018-04-28T11:43:55.351Z,16.40
2018-04-28T11:46:23.794Z,16.50
2018-04-28T11:48:52.228Z,16.60
2018-04-28T11:51:21.452Z,16.80
2018-04-28T11:53:49.885Z,16.80
2018-04-28T11:56:18.510Z,16.70
2018-04-28T11:58:46.964Z,16.70
2018-04-28T12:01:16.150Z,16.80
2018-04-28T12:03:45.353Z,16.70
2018-04-28T12:06:14.569Z,16.80
2018-04-28T12:08:43.062Z,16.80
2018-04-28T12:11:11.493Z,16.90
2018-04-28T12:13:40.884Z,17.00
2018-04-28T12:16:09.320Z,17.10
2018-04-28T12:18:37.804Z,17.20
2018-04-28T12:21:06.238Z,17.10
2018-04-28T12:23:35.826Z,17.10
2018-04-28T12:26:04.253Z,17.10
2018-04-28T12:28:32.682Z,17.00
2018-04-28T12:31:01.502Z,17.00
2018-04-28T12:33:31.829Z,17.10
2018-04-28T12:36:01.082Z,17.10
2018-04-28T12:38:29.745Z,17.10
2018-04-28T12:40:58.184Z,17.10
2018-04-28T12:43:28.374Z,17.40
2018-04-28T12:45:56.801Z,17.30
2018-04-28T12:48:25.255Z,17.50
2018-04-28T12:50:54.431Z,17.50
2018-04-28T12:53:23.813Z,17.50
2018-04-28T12:55:52.249Z,17.50
2018-04-28T12:58:20.698Z,17.70
2018-04-28T13:00:49.139Z,17.70
2018-04-28T13:03:17.571Z,17.80
2018-04-28T13:05:46.762Z,17.90
2018-04-28T13:08:15.953Z,17.90
2018-04-28T13:10:45.148Z,17.90
2018-04-28T13:13:14.347Z,17.90
2018-04-28T13:15:43.572Z,18.10
2018-04-28T13:18:12.190Z,18.00
2018-04-28T13:20:40.612Z,18.10
2018-04-28T13:23:09.810Z,18.20
2018-04-28T13:25:39.015Z,18.20
2018-04-28T13:28:07.504Z,18.20
2018-04-28T13:30:35.940Z,18.30
2018-04-28T13:33:04.376Z,18.20
2018-04-28T13:35:32.792Z,18.20
2018-04-28T13:38:02.015Z,18.30
2018-04-28T13:40:31.836Z,18.30
2018-04-28T13:43:02.029Z,18.30
2018-04-28T13:45:31.257Z,18.30
2018-04-28T13:47:59.860Z,18.30
2018-04-28T13:50:28.305Z,18.30
2018-04-28T13:52:57.500Z,18.50
2018-04-28T13:55:26.703Z,18.60
2018-04-28T13:57:55.905Z,18.60
2018-04-28T14:00:25.106Z,18.60
2018-04-28T14:02:53.532Z,18.60
2018-04-28T14:05:21.957Z,18.70
2018-04-28T14:07:51.165Z,19.00
2018-04-28T14:10:19.602Z,19.00
2018-04-28T14:12:48.050Z,19.10
2018-04-28T14:15:16.470Z,19.00
2018-04-28T14:17:44.728Z,19.10
2018-04-28T14:20:12.930Z,19.30
2018-04-28T14:22:42.123Z,19.50
2018-04-28T14:25:11.326Z,19.60
2018-04-28T14:27:40.297Z,19.50
2018-04-28T14:30:08.736Z,19.50
2018-04-28T14:32:37.167Z,19.50
2018-04-28T14:35:06.380Z,19.70
2018-04-28T14:37:34.808Z,19.70
2018-04-28T14:40:03.686Z,20.00
2018-04-28T14:42:40.337Z,20.00
2018-04-28T14:45:08.776Z,20.10
2018-04-28T14:47:37.208Z,20.10
2018-04-28T14:50:04.989Z,20.00
2018-04-28T14:52:34.185Z,20.10
2018-04-28T14:55:03.390Z,20.10
2018-04-28T14:57:32.781Z,20.30
2018-04-28T15:00:01.765Z,20.60
2018-04-28T15:02:30.963Z,20.50
2018-04-28T15:05:00.184Z,20.50
2018-04-28T15:07:28.640Z,20.50
2018-04-28T15:09:57.847Z,20.50
2018-04-28T15:12:27.055Z,20.40
2018-04-28T15:14:55.482Z,20.40
2018-04-28T15:17:23.953Z,20.30
2018-04-28T15:19:52.377Z,20.30
2018-04-28T15:22:21.574Z,20.40
2018-04-28T15:24:50.783Z,20.30
2018-04-28T15:27:19.221Z,20.30
2018-04-28T15:29:47.661Z,20.40
2018-04-28T15:32:16.110Z,20.40
2018-04-28T15:34:45.302Z,20.00
2018-04-28T15:37:14.516Z,20.00
2018-04-28T15:39:42.981Z,19.90
2018-04-28T15:42:12.228Z,19.80
2018-04-28T15:44:40.715Z,19.80
2018-04-28T15:47:09.193Z,19.70
2018-04-28T15:49:37.674Z,19.60
2018-04-28T15:52:06.900Z,19.50
2018-04-28T15:54:36.154Z,19.00
2018-04-28T15:57:04.602Z,19.00
2018-04-28T15:59:33.086Z,18.70
2018-04-28T16:02:01.619Z,18.70
2018-04-28T16:04:30.092Z,18.80
2018-04-28T16:06:58.591Z,18.60
2018-04-28T16:09:27.128Z,18.60
2018-04-28T16:11:55.684Z,18.50
2018-04-28T16:14:24.118Z,18.50
2018-04-28T16:16:52.590Z,18.60
2018-04-28T16:19:20.967Z,18.70
2018-04-28T16:21:49.501Z,18.70
2018-04-28T16:24:18.077Z,18.50
2018-04-28T16:26:47.328Z,18.30
2018-04-28T16:29:15.836Z,18.30
2018-04-28T16:31:45.053Z,18.30
2018-04-28T16:34:14.264Z,18.10
2018-04-28T16:36:42.685Z,18.10
2018-04-28T16:39:11.124Z,18.10
2018-04-28T16:41:39.621Z,18.20
2018-04-28T16:44:08.058Z,18.10
2018-04-28T16:46:37.253Z,18.10
2018-04-28T16:49:06.460Z,18.10
2018-04-28T16:51:35.686Z,18.10
2018-04-28T16:54:03.774Z,18.10
2018-04-28T16:56:32.232Z,18.10
2018-04-28T16:59:02.001Z,18.10
2018-04-28T17:01:30.593Z,17.90
2018-04-28T17:03:59.921Z,17.80
2018-04-28T17:06:28.427Z,17.80
2018-04-28T17:08:57.778Z,17.80
2018-04-28T17:11:27.002Z,17.80
2018-04-28T17:13:55.435Z,17.80
2018-04-28T17:16:24.628Z,17.70
2018-04-28T17:18:53.058Z,17.60
2018-04-28T17:21:21.489Z,17.60
2018-04-28T17:23:50.758Z,17.40
2018-04-28T17:26:20.088Z,17.40
2018-04-28T17:28:49.286Z,17.30
2018-04-28T17:31:18.482Z,17.40
2018-04-28T17:33:47.692Z,17.30
2018-04-28T17:36:16.901Z,17.30
2018-04-28T17:38:45.332Z,17.20
2018-04-28T17:41:13.767Z,17.20
2018-04-28T17:43:42.661Z,17.20
2018-04-28T17:46:10.868Z,17.20
2018-04-28T17:48:39.294Z,17.10
2018-04-28T17:51:07.739Z,17.10
2018-04-28T17:53:36.200Z,17.00
2018-04-28T17:56:04.624Z,17.10
2018-04-28T17:58:33.812Z,17.00
2018-04-28T18:01:03.027Z,17.00
2018-04-28T18:03:31.462Z,16.90
2018-04-28T18:05:59.930Z,17.00
2018-04-28T18:08:28.040Z,16.80
2018-04-28T18:10:57.223Z,16.80
2018-04-28T18:13:25.681Z,16.80
2018-04-28T18:15:54.129Z,16.90
2018-04-28T18:18:22.544Z,16.90
2018-04-28T18:20:51.003Z,16.80
2018-04-28T18:23:19.437Z,16.80
2018-04-28T18:25:48.629Z,16.80
2018-04-28T18:28:17.528Z,16.80
2018-04-28T18:30:45.978Z,16.70
2018-04-28T18:33:15.199Z,16.70
2018-04-28T18:35:43.629Z,16.70
2018-04-28T18:38:12.079Z,16.70
2018-04-28T18:40:40.553Z,16.60
2018-04-28T18:43:09.201Z,16.60
2018-04-28T18:45:38.434Z,16.50
2018-04-28T18:48:06.857Z,16.50
2018-04-28T18:50:35.310Z,16.50
2018-04-28T18:53:03.766Z,16.50
2018-04-28T18:55:32.201Z,16.50
2018-04-28T18:58:00.679Z,16.40
2018-04-28T19:00:29.141Z,16.30
2018-04-28T19:02:57.564Z,16.30
2018-04-28T19:05:26.553Z,16.30
2018-04-28T19:07:55.751Z,16.30
2018-04-28T19:10:24.943Z,16.20
2018-04-28T19:12:54.145Z,16.30
2018-04-28T19:15:23.357Z,16.20
2018-04-28T19:17:51.795Z,16.20
2018-04-28T19:20:20.253Z,16.30
2018-04-28T19:22:48.676Z,16.20
2018-04-28T19:25:17.872Z,16.20
2018-04-28T19:27:47.082Z,16.20
2018-04-28T19:30:15.500Z,16.10
2018-04-28T19:32:44.701Z,16.20
2018-04-28T19:35:13.126Z,16.10
2018-04-28T19:37:42.362Z,16.20
2018-04-28T19:40:10.789Z,16.20
2018-04-28T19:42:39.976Z,16.20
2018-04-28T19:45:08.442Z,16.20
2018-04-28T19:47:36.885Z,16.10
2018-04-28T19:50:04.979Z,16.10
2018-04-28T19:52:33.416Z,16.10
2018-04-28T19:55:02.476Z,16.10
2018-04-28T19:57:31.495Z,16.00
2018-04-28T20:00:00.103Z,16.00
2018-04-28T20:02:28.308Z,16.00
2018-04-28T20:04:56.503Z,15.90
2018-04-28T20:07:24.733Z,15.90
2018-04-28T20:09:53.187Z,15.80
2018-04-28T20:12:21.820Z,15.80
2018-04-28T20:14:50.249Z,15.80
2018-04-28T20:17:18.705Z,15.80
2018-04-28T20:19:47.898Z,15.90
2018-04-28T20:22:28.255Z,15.80
2018-04-28T20:25:08.573Z,15.80
2018-04-28T20:27:36.997Z,15.80
2018-04-28T20:30:06.200Z,15.80
2018-04-28T20:32:35.388Z,15.80
2018-04-28T20:35:04.602Z,15.80
2018-04-28T20:37:33.046Z,15.80
2018-04-28T20:40:02.450Z,15.70
2018-04-28T20:42:31.653Z,15.60
2018-04-28T20:45:00.130Z,15.70
2018-04-28T20:47:29.344Z,15.60
2018-04-28T20:49:58.536Z,15.60
2018-04-28T20:52:27.750Z,15.60
2018-04-28T20:54:55.849Z,15.60
2018-04-28T20:57:24.310Z,15.50
2018-04-28T20:59:52.770Z,15.50
2018-04-28T21:02:21.363Z,15.50
2018-04-28T21:04:49.817Z,15.50
2018-04-28T21:07:19.012Z,15.30
2018-04-28T21:09:48.220Z,15.40
2018-04-28T21:12:17.190Z,15.40
2018-04-28T21:14:45.620Z,15.40
2018-04-28T21:17:14.044Z,15.30
2018-04-28T21:19:42.489Z,15.40
2018-04-28T21:22:10.916Z,15.50
2018-04-28T21:24:40.169Z,15.40
2018-04-28T21:27:09.532Z,15.30
2018-04-28T21:29:38.721Z,15.30
2018-04-28T21:32:07.923Z,15.20
2018-04-28T21:34:37.113Z,15.20
2018-04-28T21:37:05.981Z,15.20
2018-04-28T21:39:34.408Z,15.20
2018-04-28T21:42:03.342Z,15.10
2018-04-28T21:44:32.433Z,15.00
2018-04-28T21:47:01.537Z,15.00
2018-04-28T21:49:30.117Z,15.10
2018-04-28T21:51:58.557Z,15.00
2018-04-28T21:54:26.997Z,14.90
2018-04-28T21:56:56.197Z,15.00
2018-04-28T21:59:25.401Z,14.90
2018-04-28T22:01:53.881Z,14.90
2018-04-28T22:04:22.319Z,14.80
2018-04-28T22:06:50.757Z,14.80
2018-04-28T22:09:19.200Z,14.70
2018-04-28T22:11:48.396Z,14.60
2018-04-28T22:14:17.614Z,14.50
2018-04-28T22:16:46.103Z,14.50
2018-04-28T22:19:14.301Z,14.50
2018-04-28T22:21:42.755Z,14.40
2018-04-28T22:24:11.201Z,14.40
2018-04-28T22:26:40.399Z,14.00
2018-04-28T22:29:09.583Z,14.00
2018-04-28T22:31:37.880Z,13.90
2018-04-28T22:34:06.332Z,13.60
2018-04-28T22:36:34.761Z,13.50
2018-04-28T22:39:02.964Z,13.50
2018-04-28T22:41:32.237Z,13.50
2018-04-28T22:44:00.819Z,13.60
2018-04-28T22:46:29.252Z,13.70
2018-04-28T22:48:57.682Z,13.80
2018-04-28T22:51:26.125Z,13.90
2018-04-28T22:53:55.320Z,13.90
2018-04-28T22:56:24.525Z,13.90
2018-04-28T22:58:52.957Z,13.90
2018-04-28T23:01:21.387Z,13.90
2018-04-28T23:03:49.807Z,13.80
2018-04-28T23:06:18.243Z,13.80
2018-04-28T23:08:47.202Z,13.80
2018-04-28T23:11:15.639Z,13.80
2018-04-28T23:13:44.082Z,13.70
2018-04-28T23:16:12.953Z,13.70
2018-04-28T23:18:41.401Z,13.60
2018-04-28T23:21:09.829Z,13.70
2018-04-28T23:23:39.029Z,13.70
2018-04-28T23:26:08.221Z,13.70
2018-04-28T23:28:37.431Z,13.70
2018-04-28T23:31:05.861Z,13.70
2018-04-28T23:33:34.318Z,13.70
2018-04-28T23:36:03.029Z,13.70
2018-04-28T23:38:31.663Z,13.70
2018-04-28T23:41:00.257Z,13.70
2018-04-28T23:43:28.689Z,13.70
2018-04-28T23:45:57.178Z,13.70
2018-04-28T23:48:26.389Z,13.70
2018-04-28T23:50:54.836Z,13.60
2018-04-28T23:53:23.034Z,13.70
2018-04-28T23:55:52.254Z,13.80
2018-04-28T23:58:20.668Z,13.80
